createdAt,value
2022-12-24T00:00:31.806Z,7.45
2022-12-24T00:05:39.053Z,8.98
2022-12-24T00:10:42.575Z,7.15
2022-12-24T00:15:45.989Z,7.88
2022-12-24T00:20:50.947Z,8.68
2022-12-24T00:30:57.525Z,7.13
2022-12-24T00:36:02.457Z,8.90
2022-12-24T00:46:09.709Z,9.30
2022-12-24T00:51:14.671Z,10.13
2022-12-24T00:56:18.575Z,11.68
2022-12-24T01:01:22.750Z,12.68
2022-12-24T01:06:27.744Z,10.27
2022-12-24T01:16:34.395Z,11.35
2022-12-24T01:21:39.244Z,11.23
2022-12-24T01:26:42.565Z,11.43
2022-12-24T01:31:46.011Z,14.43
2022-12-24T01:36:50.897Z,13.38
2022-12-24T01:42:11.707Z,17.88
2022-12-24T01:47:19.884Z,18.02
2022-12-24T01:52:28.225Z,18.75
2022-12-24T01:57:36.092Z,23.00
2022-12-24T02:02:41.660Z,25.55
2022-12-24T02:07:47.358Z,23.40
2022-12-24T02:12:52.537Z,26.55
2022-12-24T02:18:02.448Z,30.58
2022-12-24T02:23:28.059Z,23.02
2022-12-24T02:28:47.926Z,26.85
2022-12-24T02:34:01.874Z,26.15
2022-12-24T02:39:10.395Z,32.10
2022-12-24T02:44:13.970Z,21.42
2022-12-24T02:49:18.698Z,30.85
2022-12-24T02:54:22.077Z,39.22
2022-12-24T02:59:43.876Z,30.10
2022-12-24T03:04:56.825Z,33.33
2022-12-24T03:10:13.515Z,37.03
2022-12-24T03:15:20.185Z,38.72
2022-12-24T03:20:32.669Z,34.08
2022-12-24T03:25:40.024Z,30.73
2022-12-24T03:30:44.802Z,34.70
2022-12-24T03:35:49.523Z,30.63
2022-12-24T03:40:52.995Z,30.35
2022-12-24T03:45:56.546Z,26.10
2022-12-24T03:51:01.286Z,26.65
2022-12-24T03:56:04.960Z,34.47
2022-12-24T04:01:08.603Z,26.05
2022-12-24T04:06:16.279Z,29.27
2022-12-24T04:11:19.680Z,29.33
2022-12-24T04:16:23.293Z,24.95
2022-12-24T04:21:28.167Z,28.83
2022-12-24T04:26:31.737Z,25.67
2022-12-24T04:31:35.277Z,25.63
2022-12-24T04:36:40.385Z,29.33
2022-12-24T04:41:43.725Z,25.30
2022-12-24T04:46:47.077Z,29.08
2022-12-24T04:51:51.787Z,28.67
2022-12-24T04:56:55.393Z,26.08
2022-12-24T05:01:58.962Z,29.50
2022-12-24T05:07:03.806Z,28.27
2022-12-24T05:12:07.541Z,26.98
2022-12-24T05:17:11.188Z,27.58
2022-12-24T05:22:33.585Z,27.77
2022-12-24T05:27:37.455Z,32.85
2022-12-24T05:32:40.787Z,30.27
2022-12-24T05:37:45.542Z,31.30
2022-12-24T05:42:48.890Z,33.95
2022-12-24T05:47:52.238Z,33.60
2022-12-24T05:52:56.957Z,29.27
2022-12-24T05:58:00.263Z,24.83
2022-12-24T06:03:03.839Z,26.02
2022-12-24T06:08:08.897Z,27.00
2022-12-24T06:18:15.318Z,26.85
2022-12-24T06:23:20.591Z,22.52
2022-12-24T06:28:24.012Z,22.30
2022-12-24T06:33:27.333Z,24.30
2022-12-24T06:38:32.781Z,22.42
2022-12-24T06:43:36.904Z,25.65
2022-12-24T06:48:40.187Z,24.03
2022-12-24T06:53:45.158Z,21.85
2022-12-24T06:58:48.808Z,24.98
2022-12-24T07:03:52.378Z,22.40
2022-12-24T07:08:57.228Z,23.92
2022-12-24T07:14:00.759Z,25.90
2022-12-24T07:19:04.784Z,29.70
2022-12-24T07:24:09.739Z,23.93
2022-12-24T07:34:16.454Z,26.38
2022-12-24T07:39:21.209Z,23.65
2022-12-24T07:44:25.277Z,19.25
2022-12-24T07:49:28.844Z,18.87
2022-12-24T07:54:33.801Z,21.17
2022-12-24T08:04:40.696Z,15.75
2022-12-24T08:09:46.298Z,15.77
2022-12-24T08:14:49.615Z,15.77
2022-12-24T08:19:52.917Z,16.08
2022-12-24T08:24:57.981Z,16.15
2022-12-24T08:30:01.362Z,12.40
2022-12-24T08:35:05.148Z,12.80
2022-12-24T08:40:11.473Z,12.75
2022-12-24T08:45:15.009Z,14.00
2022-12-24T08:50:18.490Z,11.68
2022-12-24T08:55:23.349Z,11.98
2022-12-24T09:05:30.364Z,9.65
2022-12-24T09:10:35.149Z,10.03
2022-12-24T09:15:38.524Z,12.02
2022-12-24T09:20:46.719Z,10.90
2022-12-24T09:25:52.134Z,11.15
2022-12-24T09:30:59.785Z,11.90
2022-12-24T09:36:03.849Z,10.90
2022-12-24T09:41:16.093Z,9.83
2022-12-24T09:46:24.304Z,10.77
2022-12-24T09:51:33.517Z,10.60
2022-12-24T09:56:41.708Z,10.35
2022-12-24T10:01:45.331Z,10.07
2022-12-24T10:07:00.014Z,10.63
2022-12-24T10:12:10.950Z,9.43
2022-12-24T10:17:31.263Z,8.98
2022-12-24T10:22:42.484Z,10.32
2022-12-24T10:27:47.927Z,7.95
2022-12-24T10:32:54.004Z,8.45
2022-12-24T10:37:58.576Z,8.48
2022-12-24T10:43:03.447Z,7.55
2022-12-24T10:48:13.554Z,7.60
2022-12-24T10:53:21.624Z,6.43
2022-12-24T10:58:26.532Z,8.82
2022-12-24T11:08:37.992Z,8.93
2022-12-24T11:13:46.216Z,9.68
2022-12-24T11:18:52.627Z,7.47
2022-12-24T11:23:58.757Z,9.65
2022-12-24T11:29:15.145Z,9.45
2022-12-24T11:34:27.266Z,7.65
2022-12-24T11:39:30.693Z,9.25
2022-12-24T11:44:35.969Z,8.32
2022-12-24T11:49:39.455Z,9.25
2022-12-24T11:54:53.054Z,9.10
2022-12-24T11:59:57.849Z,8.07
2022-12-24T12:05:10.288Z,8.85
2022-12-24T12:10:25.780Z,9.32
2022-12-24T12:15:35.679Z,6.40
2022-12-24T12:20:43.116Z,7.65
2022-12-24T12:25:55.461Z,6.25
2022-12-24T12:31:07.035Z,7.00
2022-12-24T12:36:17.235Z,6.15
2022-12-24T12:41:28.638Z,6.05
2022-12-24T12:46:45.243Z,5.65
2022-12-24T12:51:58.191Z,6.45
2022-12-24T12:57:09.038Z,5.97
2022-12-24T13:02:30.074Z,6.68
2022-12-24T13:07:53.128Z,8.05
2022-12-24T13:13:20.615Z,8.88
2022-12-24T13:18:54.481Z,7.47
2022-12-24T13:24:08.143Z,8.05
2022-12-24T13:29:39.621Z,7.72
2022-12-24T13:34:50.108Z,9.77
2022-12-24T13:40:17.102Z,9.98
2022-12-24T13:45:49.700Z,9.20
2022-12-24T13:50:56.738Z,10.15
2022-12-24T13:56:07.753Z,8.23
2022-12-24T14:01:14.794Z,7.78
2022-12-24T14:06:26.485Z,7.95
2022-12-24T14:11:34.603Z,8.10
2022-12-24T14:16:49.997Z,9.95
2022-12-24T14:22:02.647Z,7.38
2022-12-24T14:27:18.616Z,7.72
2022-12-24T14:32:22.015Z,7.57
2022-12-24T14:37:32.984Z,7.90
2022-12-24T14:42:46.576Z,7.68
2022-12-24T14:47:57.921Z,7.75
2022-12-24T14:53:19.067Z,7.10
2022-12-24T14:58:26.450Z,7.50
2022-12-24T15:03:32.447Z,9.20
2022-12-24T15:08:41.793Z,8.32
2022-12-24T15:13:49.359Z,7.85
2022-12-24T15:18:56.908Z,8.85
2022-12-24T15:24:03.171Z,7.85
2022-12-24T15:34:28.138Z,8.50
2022-12-24T15:39:33.423Z,7.68
2022-12-24T15:44:39.084Z,7.63
2022-12-24T15:49:47.602Z,6.93
2022-12-24T15:54:57.675Z,6.53
2022-12-24T16:00:02.706Z,7.68
2022-12-24T16:05:30.507Z,7.07
2022-12-24T16:10:36.015Z,7.10
2022-12-24T16:15:49.726Z,6.18
2022-12-24T16:20:55.544Z,5.07
2022-12-24T16:26:01.043Z,5.68
2022-12-24T16:31:05.093Z,8.27
2022-12-24T16:36:09.117Z,4.73
2022-12-24T16:41:14.117Z,5.60
2022-12-24T16:46:17.777Z,5.93
2022-12-24T16:51:21.214Z,4.78
2022-12-24T16:56:26.155Z,4.85
2022-12-24T17:06:32.876Z,5.90
2022-12-24T17:11:37.784Z,5.05
2022-12-24T17:21:44.343Z,4.40
2022-12-24T17:26:49.301Z,4.30
2022-12-24T17:31:53.329Z,5.93
2022-12-24T17:36:56.815Z,4.87
2022-12-24T17:42:01.857Z,4.53
2022-12-24T17:52:08.809Z,4.30
2022-12-24T17:57:13.746Z,5.43
2022-12-24T18:02:17.300Z,6.40
2022-12-24T18:07:20.723Z,3.45
2022-12-24T18:12:25.836Z,6.38
2022-12-24T18:17:29.343Z,5.65
2022-12-24T18:22:32.748Z,5.43
2022-12-24T18:27:38.153Z,4.85
2022-12-24T18:32:41.698Z,4.80
2022-12-24T18:37:45.037Z,4.72
2022-12-24T18:42:49.828Z,5.22
2022-12-24T18:47:53.146Z,4.05
2022-12-24T18:52:56.638Z,4.13
2022-12-24T18:58:01.377Z,3.63
2022-12-24T19:03:05.065Z,4.35
2022-12-24T19:08:37.624Z,3.55
2022-12-24T19:13:33.452Z,3.65
2022-12-24T19:23:40.062Z,4.95
2022-12-24T19:28:45.255Z,3.95
2022-12-24T19:33:50.488Z,5.22
2022-12-24T19:38:54.313Z,4.47
2022-12-24T19:44:01.208Z,4.37
2022-12-24T19:49:06.946Z,6.40
2022-12-24T19:54:18.690Z,5.10
2022-12-24T19:59:24.013Z,5.57
2022-12-24T20:04:27.512Z,4.85
2022-12-24T20:09:32.919Z,5.78
2022-12-24T20:14:37.833Z,5.13
2022-12-24T20:19:42.537Z,5.07
2022-12-24T20:24:46.203Z,4.93
2022-12-24T20:29:51.000Z,5.47
2022-12-24T20:34:54.525Z,6.25
2022-12-24T20:39:58.006Z,6.03
2022-12-24T20:45:04.494Z,5.45
2022-12-24T20:50:09.026Z,7.03
2022-12-24T20:55:12.445Z,7.35
2022-12-24T21:00:18.605Z,5.78
2022-12-24T21:05:22.120Z,5.38
2022-12-24T21:10:30.706Z,6.55
2022-12-24T21:15:40.593Z,5.45
2022-12-24T21:20:44.089Z,5.25
2022-12-24T21:25:57.870Z,5.45
2022-12-24T21:31:02.887Z,6.72
2022-12-24T21:36:06.589Z,5.50
2022-12-24T21:41:12.459Z,4.55
2022-12-24T21:46:20.209Z,5.63
2022-12-24T21:51:24.422Z,3.42
2022-12-24T21:56:27.887Z,4.83
2022-12-24T22:01:32.867Z,4.38
2022-12-24T22:06:53.721Z,4.63
2022-12-24T22:11:57.201Z,4.75
2022-12-24T22:17:02.192Z,6.22
2022-12-24T22:22:05.710Z,3.95
2022-12-24T22:27:09.125Z,3.63
2022-12-24T22:32:13.989Z,3.75
2022-12-24T22:42:20.989Z,4.10
2022-12-24T22:47:25.790Z,4.50
2022-12-24T22:52:29.614Z,3.75
2022-12-24T22:57:33.160Z,4.13
2022-12-24T23:02:38.186Z,3.95
2022-12-24T23:07:41.851Z,3.17
2022-12-24T23:13:02.833Z,3.03
2022-12-24T23:18:08.758Z,2.58
2022-12-24T23:23:12.708Z,3.60
2022-12-24T23:28:16.043Z,3.10
2022-12-24T23:33:21.049Z,2.50
2022-12-24T23:43:27.910Z,3.22
2022-12-24T23:48:32.971Z,3.85
2022-12-24T23:53:36.524Z,2.92
2022-12-24T23:58:40.668Z,2.53
